Odessa, Odessa Schlemeyer Field (KODO)

NameOdessa Schlemeyer Field
CityOdessa
CountryUnited States
ICAOKODO
IATA
Altitude916 m
CoordinatesGoogle Map
Live Air TrafficLiveATC.net
METARKODO 151453Z AUTO 20004KT 9SM CLR 04/00 A3042 RMK AO2 SLP297 T00390000 51010
2019-11-15 14:53:00 Wind: South (200°) 2.06 m/s - Visibility: 14484.06 m - Temperature: 4 °C - Dew point: 0 °C - Humidity: 75.4% - Pressure: 1030.14 hPa
Statistics

The table below shows the detailed information of all flights to/from Odessa, Odessa Schlemeyer Field (KODO).